createdAt,value
2022-07-29T00:01:44.448Z,62.31
2022-07-29T00:04:13.558Z,62.80
2022-07-29T00:06:42.271Z,62.41
2022-07-29T00:09:09.957Z,63.27
2022-07-29T00:11:37.843Z,64.52
2022-07-29T00:14:05.944Z,62.98
2022-07-29T00:16:33.966Z,63.33
2022-07-29T00:19:02.473Z,63.80
2022-07-29T00:21:30.698Z,63.24
2022-07-29T00:23:58.656Z,63.55
2022-07-29T00:26:28.857Z,63.79
2022-07-29T00:29:23.682Z,65.75
2022-07-29T00:31:44.403Z,64.08
2022-07-29T00:34:31.426Z,64.00
2022-07-29T00:36:59.395Z,62.70
2022-07-29T00:39:27.492Z,62.93
2022-07-29T00:41:55.537Z,63.60
2022-07-29T00:44:23.575Z,63.31
2022-07-29T00:46:51.423Z,63.92
2022-07-29T00:49:19.541Z,63.92
2022-07-29T00:51:49.088Z,64.40
2022-07-29T00:54:17.327Z,64.37
2022-07-29T00:56:45.656Z,64.34
2022-07-29T00:59:13.469Z,65.10
2022-07-29T01:01:41.403Z,64.23
2022-07-29T01:04:09.379Z,64.41
2022-07-29T01:06:37.224Z,64.67
2022-07-29T01:09:05.828Z,64.48
2022-07-29T01:11:35.113Z,65.43
2022-07-29T01:14:10.477Z,64.47
2022-07-29T01:16:48.779Z,65.78
2022-07-29T01:19:50.916Z,65.50
2022-07-29T01:22:41.698Z,64.01
2022-07-29T01:25:46.723Z,64.71
2022-07-29T01:28:50.373Z,64.34
2022-07-29T01:31:29.345Z,64.63
2022-07-29T01:34:04.974Z,64.27
2022-07-29T01:36:44.069Z,65.16
2022-07-29T01:39:27.075Z,64.63
2022-07-29T01:42:16.082Z,64.37
2022-07-29T01:45:11.960Z,65.26
2022-07-29T01:48:17.420Z,66.43
2022-07-29T01:50:52.412Z,65.56
2022-07-29T01:53:37.784Z,66.13
2022-07-29T01:56:09.521Z,65.09
2022-07-29T01:58:42.746Z,65.05
2022-07-29T02:01:13.895Z,64.88
2022-07-29T02:03:46.585Z,65.53
2022-07-29T02:06:22.159Z,65.19
2022-07-29T02:08:54.125Z,64.98
2022-07-29T02:14:03.255Z,65.10
2022-07-29T02:16:34.681Z,65.33
2022-07-29T02:19:04.465Z,64.63
2022-07-29T02:21:35.398Z,65.91
2022-07-29T02:24:05.726Z,65.08
2022-07-29T02:26:35.221Z,65.21
2022-07-29T02:29:04.410Z,64.77
2022-07-29T02:31:36.141Z,64.63
2022-07-29T02:34:09.449Z,64.14
2022-07-29T02:36:38.709Z,64.22
2022-07-29T02:39:10.773Z,64.18
2022-07-29T02:41:44.782Z,63.87
2022-07-29T02:44:17.856Z,64.04
2022-07-29T02:47:20.275Z,65.44
2022-07-29T02:50:03.628Z,66.04
2022-07-29T02:52:43.571Z,66.27
2022-07-29T02:55:34.827Z,66.72
2022-07-29T02:58:27.297Z,64.77
2022-07-29T03:00:59.634Z,65.21
2022-07-29T03:03:33.674Z,65.34
2022-07-29T03:06:04.093Z,64.85
2022-07-29T03:08:33.896Z,64.56
2022-07-29T03:11:03.200Z,64.27
2022-07-29T03:13:32.019Z,63.95
2022-07-29T03:16:01.247Z,64.21
2022-07-29T03:18:29.640Z,64.77
2022-07-29T03:20:57.669Z,66.11
2022-07-29T03:23:27.210Z,66.25
2022-07-29T03:26:01.036Z,65.80
2022-07-29T03:28:29.014Z,65.21
2022-07-29T03:30:56.997Z,66.05
2022-07-29T03:33:24.887Z,67.07
2022-07-29T03:35:52.767Z,67.43
2022-07-29T03:38:24.898Z,67.10
2022-07-29T03:41:02.845Z,67.70
2022-07-29T03:43:39.453Z,68.58
2022-07-29T03:46:20.749Z,66.92
2022-07-29T03:48:57.522Z,68.85
2022-07-29T03:51:34.108Z,71.10
2022-07-29T03:54:09.819Z,68.23
2022-07-29T03:56:48.626Z,69.78
2022-07-29T03:59:20.587Z,67.63
2022-07-29T04:01:50.276Z,67.01
2022-07-29T04:04:19.133Z,65.97
2022-07-29T04:06:48.259Z,66.96
2022-07-29T04:09:16.404Z,66.50
2022-07-29T04:12:02.433Z,66.99
2022-07-29T04:14:34.967Z,67.41
2022-07-29T04:17:05.178Z,66.61
2022-07-29T04:19:33.647Z,71.47
2022-07-29T04:22:02.502Z,69.01
2022-07-29T04:24:30.363Z,68.30
2022-07-29T04:26:58.150Z,67.30
2022-07-29T04:29:25.946Z,66.99
2022-07-29T04:31:53.844Z,66.56
2022-07-29T04:34:21.733Z,66.69
2022-07-29T04:36:49.547Z,67.20
2022-07-29T04:39:22.689Z,66.85
2022-07-29T04:41:52.496Z,66.34
2022-07-29T04:44:28.702Z,65.96
2022-07-29T04:46:58.512Z,67.07
2022-07-29T04:49:26.612Z,66.69
2022-07-29T04:51:54.718Z,66.86
2022-07-29T04:54:22.631Z,66.06
2022-07-29T04:56:50.455Z,66.56
2022-07-29T04:59:18.269Z,66.24
2022-07-29T05:01:46.276Z,65.72
2022-07-29T05:04:14.451Z,65.83
2022-07-29T05:06:42.539Z,66.24
2022-07-29T05:09:10.491Z,65.75
2022-07-29T05:11:38.290Z,66.97
2022-07-29T05:14:06.272Z,66.18
2022-07-29T05:16:35.519Z,67.26
2022-07-29T05:19:04.358Z,66.81
2022-07-29T05:21:32.383Z,66.65
2022-07-29T05:24:00.308Z,66.34
2022-07-29T05:26:28.350Z,66.01
2022-07-29T05:28:56.149Z,65.57
2022-07-29T05:31:24.034Z,65.74
2022-07-29T05:33:51.872Z,66.01
2022-07-29T05:36:19.876Z,65.70
2022-07-29T05:38:47.910Z,65.96
2022-07-29T05:41:15.832Z,66.08
2022-07-29T05:43:43.618Z,64.92
2022-07-29T05:46:11.612Z,65.82
2022-07-29T05:48:40.196Z,65.75
2022-07-29T05:51:08.164Z,65.65
2022-07-29T05:53:36.093Z,66.43
2022-07-29T05:56:07.162Z,66.47
2022-07-29T05:58:34.978Z,65.13
2022-07-29T06:01:03.618Z,65.70
2022-07-29T06:03:31.649Z,65.44
2022-07-29T06:05:59.488Z,65.72
2022-07-29T06:08:27.377Z,64.72
2022-07-29T06:10:55.340Z,64.17
2022-07-29T06:13:23.108Z,63.73
2022-07-29T06:15:50.910Z,63.44
2022-07-29T06:18:19.040Z,63.24
2022-07-29T06:20:47.099Z,62.57
2022-07-29T06:23:15.258Z,62.53
2022-07-29T06:25:43.044Z,62.37
2022-07-29T06:28:11.191Z,62.03
2022-07-29T06:30:40.496Z,62.08
2022-07-29T06:33:08.383Z,61.56
2022-07-29T06:35:41.463Z,60.44
2022-07-29T06:38:14.900Z,60.71
2022-07-29T06:41:03.795Z,60.54
2022-07-29T06:43:50.501Z,59.28
2022-07-29T06:46:22.446Z,59.68
2022-07-29T06:48:50.975Z,58.19
2022-07-29T06:51:22.807Z,58.84
2022-07-29T06:53:59.648Z,58.18
2022-07-29T06:56:38.992Z,57.66
2022-07-29T06:59:10.506Z,57.67
2022-07-29T07:01:41.488Z,57.40
2022-07-29T07:04:11.179Z,57.20
2022-07-29T07:06:39.451Z,56.68
2022-07-29T07:09:07.920Z,53.83
2022-07-29T07:11:36.453Z,53.67
2022-07-29T07:14:04.598Z,51.68
2022-07-29T07:16:33.283Z,52.68
2022-07-29T07:19:02.083Z,51.93
2022-07-29T07:21:31.204Z,51.25
2022-07-29T07:24:00.692Z,49.80
2022-07-29T07:26:29.570Z,49.56
2022-07-29T07:28:57.712Z,48.87
2022-07-29T07:31:25.821Z,47.32
2022-07-29T07:33:54.628Z,47.95
2022-07-29T07:36:23.361Z,46.25
2022-07-29T07:38:51.316Z,47.05
2022-07-29T07:41:19.248Z,47.63
2022-07-29T07:43:47.462Z,47.61
2022-07-29T07:46:16.243Z,46.96
2022-07-29T07:48:44.325Z,44.66
2022-07-29T07:51:12.710Z,45.33
2022-07-29T07:53:40.578Z,44.58
2022-07-29T07:56:11.031Z,44.48
2022-07-29T07:58:40.259Z,40.98
2022-07-29T08:01:09.274Z,43.16
2022-07-29T08:03:37.523Z,43.62
2022-07-29T08:06:05.984Z,39.98
2022-07-29T08:08:33.913Z,40.94
2022-07-29T08:11:06.942Z,40.55
2022-07-29T08:13:38.900Z,41.36
2022-07-29T08:16:15.993Z,38.87
2022-07-29T08:18:46.441Z,39.91
2022-07-29T08:21:16.698Z,37.95
2022-07-29T08:23:51.624Z,38.15
2022-07-29T08:26:23.733Z,38.62
2022-07-29T08:28:51.950Z,37.03
2022-07-29T08:31:19.950Z,38.54
2022-07-29T08:33:47.773Z,39.40
2022-07-29T08:36:15.573Z,38.93
2022-07-29T08:38:43.391Z,38.58
2022-07-29T08:41:11.175Z,38.34
2022-07-29T08:43:42.002Z,37.14
2022-07-29T08:46:10.124Z,37.08
2022-07-29T08:48:39.600Z,37.08
2022-07-29T08:51:09.570Z,37.82
2022-07-29T08:53:39.231Z,37.78
2022-07-29T08:56:07.624Z,36.80
2022-07-29T08:58:36.786Z,35.33
2022-07-29T09:01:07.649Z,35.66
2022-07-29T09:03:42.502Z,35.98
2022-07-29T09:06:15.437Z,36.20
2022-07-29T09:08:44.191Z,35.70
2022-07-29T09:11:14.122Z,33.25
2022-07-29T09:13:42.321Z,35.07
2022-07-29T09:16:10.979Z,34.51
2022-07-29T09:18:45.595Z,33.24
2022-07-29T09:21:37.300Z,32.70
2022-07-29T09:24:15.759Z,33.71
2022-07-29T09:26:46.838Z,34.10
2022-07-29T09:29:19.857Z,33.91
2022-07-29T09:31:53.915Z,33.57
2022-07-29T09:34:29.447Z,31.99
2022-07-29T09:36:58.274Z,32.99
2022-07-29T09:39:41.244Z,32.37
2022-07-29T09:42:09.124Z,32.87
2022-07-29T09:44:47.834Z,31.91
2022-07-29T09:47:18.039Z,34.10
2022-07-29T09:50:01.087Z,31.80
2022-07-29T09:52:30.978Z,32.57
2022-07-29T09:55:10.455Z,31.91
2022-07-29T09:57:47.791Z,31.73
2022-07-29T10:00:19.995Z,30.44
2022-07-29T10:02:48.837Z,30.39
2022-07-29T10:05:26.061Z,31.30
2022-07-29T10:07:58.014Z,32.38
2022-07-29T10:10:29.549Z,32.28
2022-07-29T10:13:16.018Z,31.64
2022-07-29T10:15:47.434Z,30.38
2022-07-29T10:18:18.567Z,29.13
2022-07-29T10:20:46.852Z,31.07
2022-07-29T10:23:15.307Z,30.02
2022-07-29T10:25:46.153Z,31.70
2022-07-29T10:28:16.792Z,31.48
2022-07-29T10:30:47.035Z,31.50
2022-07-29T10:33:33.598Z,31.77
2022-07-29T10:36:40.087Z,30.12
2022-07-29T10:40:00.732Z,29.88
2022-07-29T10:42:34.113Z,31.46
2022-07-29T10:45:05.159Z,31.57
2022-07-29T10:47:35.377Z,28.72
2022-07-29T10:50:07.150Z,30.08
2022-07-29T10:52:57.975Z,27.65
2022-07-29T10:55:49.463Z,29.61
2022-07-29T10:58:28.151Z,29.04
2022-07-29T11:00:57.654Z,29.59
2022-07-29T11:03:49.399Z,28.95
2022-07-29T11:06:26.609Z,27.80
2022-07-29T11:12:46.944Z,26.59
2022-07-29T11:15:19.722Z,28.46
2022-07-29T11:17:59.203Z,28.75
2022-07-29T11:20:45.887Z,29.07
2022-07-29T11:23:28.250Z,29.43
2022-07-29T11:26:13.668Z,26.97
2022-07-29T11:28:55.748Z,27.06
2022-07-29T11:31:45.535Z,27.39
2022-07-29T11:34:29.641Z,26.88
2022-07-29T11:37:13.766Z,25.91
2022-07-29T11:40:09.969Z,27.16
2022-07-29T11:45:48.134Z,26.07
2022-07-29T11:48:31.518Z,27.30
2022-07-29T11:51:00.820Z,27.78
2022-07-29T11:53:32.675Z,26.78
2022-07-29T11:56:02.736Z,26.18
2022-07-29T11:58:32.799Z,28.00
2022-07-29T12:01:04.589Z,26.88
2022-07-29T12:03:35.962Z,28.09
2022-07-29T12:06:17.588Z,27.74
2022-07-29T12:07:01.821Z,27.06
2022-07-29T12:08:47.396Z,27.62
2022-07-29T12:11:22.802Z,26.49
2022-07-29T12:13:52.804Z,25.90
2022-07-29T12:16:25.414Z,25.58
2022-07-29T12:19:03.728Z,26.59
2022-07-29T12:21:59.331Z,26.80
2022-07-29T12:24:27.724Z,26.78
2022-07-29T12:27:00.892Z,25.71
2022-07-29T12:29:34.591Z,26.26
2022-07-29T12:32:14.559Z,26.10
2022-07-29T12:34:43.253Z,26.01
2022-07-29T12:37:11.514Z,26.72
2022-07-29T12:39:40.374Z,27.58
2022-07-29T12:42:18.372Z,26.55
2022-07-29T12:44:52.296Z,26.90
2022-07-29T12:47:21.878Z,27.03
2022-07-29T12:49:51.684Z,26.00
2022-07-29T12:52:33.840Z,26.07
2022-07-29T12:55:02.213Z,25.94
2022-07-29T12:57:30.447Z,26.90
2022-07-29T13:00:12.608Z,26.18
2022-07-29T13:02:42.688Z,25.55
2022-07-29T13:05:13.638Z,27.62
2022-07-29T13:07:55.312Z,26.48
2022-07-29T13:10:27.093Z,25.12
2022-07-29T13:13:12.544Z,25.20
2022-07-29T13:15:45.905Z,24.85
2022-07-29T13:18:37.053Z,24.77
2022-07-29T13:21:18.915Z,25.39
2022-07-29T13:23:46.981Z,26.29
2022-07-29T13:26:17.434Z,26.91
2022-07-29T13:28:45.497Z,25.22
2022-07-29T13:31:13.616Z,24.35
2022-07-29T13:33:41.713Z,24.65
2022-07-29T13:36:09.779Z,24.15
2022-07-29T13:38:38.192Z,25.30
2022-07-29T13:41:11.314Z,24.33
2022-07-29T13:43:39.456Z,24.52
2022-07-29T13:46:08.081Z,24.48
2022-07-29T13:48:36.742Z,25.34
2022-07-29T13:51:04.873Z,25.45
2022-07-29T13:53:33.913Z,25.81
2022-07-29T13:56:02.562Z,24.43
2022-07-29T13:58:30.457Z,24.29
2022-07-29T14:01:00.925Z,23.30
2022-07-29T14:03:29.186Z,24.89
2022-07-29T14:05:57.455Z,25.22
2022-07-29T14:08:25.279Z,23.89
2022-07-29T14:11:11.804Z,24.44
2022-07-29T14:13:39.648Z,24.14
2022-07-29T14:16:08.193Z,24.04
2022-07-29T14:18:36.128Z,23.56
2022-07-29T14:21:04.422Z,23.05
2022-07-29T14:23:32.483Z,23.50
2022-07-29T14:26:00.761Z,24.35
2022-07-29T14:28:28.652Z,24.38
2022-07-29T14:30:56.497Z,24.62
2022-07-29T14:33:24.541Z,24.55
2022-07-29T14:35:52.349Z,25.52
2022-07-29T14:38:20.220Z,24.28
2022-07-29T14:40:48.260Z,24.71
2022-07-29T14:43:18.837Z,24.74
2022-07-29T14:45:48.394Z,24.30
2022-07-29T14:48:16.548Z,24.60
2022-07-29T14:50:44.421Z,24.79
2022-07-29T14:53:14.232Z,24.07
2022-07-29T14:55:43.025Z,23.94
2022-07-29T14:58:16.024Z,23.91
2022-07-29T15:00:44.514Z,24.43
2022-07-29T15:03:12.627Z,24.38
2022-07-29T15:05:51.594Z,23.54
2022-07-29T15:08:19.494Z,24.61
2022-07-29T15:10:47.631Z,23.52
2022-07-29T15:13:15.669Z,22.18
2022-07-29T15:15:43.605Z,22.16
2022-07-29T15:18:11.500Z,23.42
2022-07-29T15:20:39.506Z,22.95
2022-07-29T15:23:10.497Z,23.30
2022-07-29T15:25:38.487Z,24.19
2022-07-29T15:28:10.088Z,24.30
2022-07-29T15:30:41.822Z,23.81
2022-07-29T15:33:10.660Z,23.40
2022-07-29T15:35:40.559Z,24.11
2022-07-29T15:38:09.510Z,24.04
2022-07-29T15:40:42.146Z,23.72
2022-07-29T15:43:10.265Z,23.79
2022-07-29T15:45:40.882Z,23.87
2022-07-29T15:48:14.778Z,23.46
2022-07-29T15:50:43.137Z,23.88
2022-07-29T15:53:15.339Z,24.09
2022-07-29T15:55:43.136Z,24.24
2022-07-29T15:58:12.588Z,24.30
2022-07-29T16:00:40.377Z,24.84
2022-07-29T16:03:08.544Z,25.08
2022-07-29T16:05:36.545Z,25.23
2022-07-29T16:08:05.873Z,25.47
2022-07-29T16:10:33.890Z,25.39
2022-07-29T16:13:01.954Z,25.34
2022-07-29T16:15:29.731Z,26.01
2022-07-29T16:17:57.666Z,26.36
2022-07-29T16:20:25.480Z,26.52
2022-07-29T16:22:54.353Z,26.59
2022-07-29T16:25:29.602Z,25.96
2022-07-29T16:28:06.931Z,26.46
2022-07-29T16:30:35.771Z,26.36
2022-07-29T16:33:08.210Z,26.03
2022-07-29T16:35:40.180Z,26.40
2022-07-29T16:38:08.399Z,26.86
2022-07-29T16:40:36.302Z,27.13
2022-07-29T16:43:04.299Z,26.78
2022-07-29T16:45:45.571Z,26.90
2022-07-29T16:48:15.372Z,26.10
2022-07-29T16:50:46.496Z,26.65
2022-07-29T16:53:14.442Z,27.00
2022-07-29T16:55:42.702Z,26.69
2022-07-29T16:58:12.076Z,26.72
2022-07-29T17:00:40.164Z,26.62
2022-07-29T17:03:08.298Z,26.64
2022-07-29T17:05:50.688Z,26.84
2022-07-29T17:08:22.960Z,27.33
2022-07-29T17:10:51.056Z,27.52
2022-07-29T17:13:20.614Z,27.76
2022-07-29T17:15:48.559Z,27.81
2022-07-29T17:18:16.396Z,28.17
2022-07-29T17:20:45.638Z,28.34
2022-07-29T17:23:13.506Z,28.83
2022-07-29T17:25:41.349Z,30.13
2022-07-29T17:28:09.250Z,31.20
2022-07-29T17:30:37.137Z,31.62
2022-07-29T17:33:05.085Z,32.61
2022-07-29T17:35:53.225Z,32.60
2022-07-29T17:38:21.079Z,32.95
2022-07-29T17:40:48.826Z,34.04
2022-07-29T17:43:16.671Z,34.19
2022-07-29T17:45:48.884Z,34.14
2022-07-29T17:48:19.640Z,34.43
2022-07-29T17:50:49.045Z,34.48
2022-07-29T17:53:17.462Z,36.30
2022-07-29T17:55:47.726Z,35.64
2022-07-29T17:58:16.822Z,35.89
2022-07-29T18:00:45.746Z,36.63
2022-07-29T18:03:13.748Z,38.37
2022-07-29T18:05:42.323Z,37.83
2022-07-29T18:08:10.370Z,37.87
2022-07-29T18:10:38.357Z,38.22
2022-07-29T18:13:06.207Z,38.40
2022-07-29T18:15:34.103Z,38.71
2022-07-29T18:18:01.985Z,38.87
2022-07-29T18:20:29.854Z,39.33
2022-07-29T18:22:57.925Z,40.76
2022-07-29T18:25:26.950Z,41.87
2022-07-29T18:27:58.513Z,41.55
2022-07-29T18:30:30.202Z,41.90
2022-07-29T18:33:20.166Z,42.49
2022-07-29T18:35:48.184Z,42.81
2022-07-29T18:38:16.548Z,42.77
2022-07-29T18:40:46.063Z,43.53
2022-07-29T18:43:14.365Z,42.36
2022-07-29T18:45:42.610Z,43.20
2022-07-29T18:48:13.304Z,44.22
2022-07-29T18:50:42.426Z,44.22
2022-07-29T18:53:10.329Z,44.64
2022-07-29T18:55:38.263Z,44.09
2022-07-29T18:58:06.226Z,45.09
2022-07-29T19:00:34.164Z,46.05
2022-07-29T19:03:03.620Z,45.54
2022-07-29T19:05:31.676Z,47.44
2022-07-29T19:07:59.965Z,45.57
2022-07-29T19:10:28.108Z,45.48
2022-07-29T19:12:56.917Z,45.22
2022-07-29T19:15:24.990Z,45.52
2022-07-29T19:17:54.762Z,45.23
2022-07-29T19:20:25.750Z,45.74
2022-07-29T19:22:53.601Z,46.09
2022-07-29T19:25:23.110Z,46.07
2022-07-29T19:27:50.956Z,46.39
2022-07-29T19:30:18.698Z,46.60
2022-07-29T19:32:46.548Z,47.37
2022-07-29T19:35:31.409Z,47.15
2022-07-29T19:38:02.295Z,48.33
2022-07-29T19:40:30.510Z,47.31
2022-07-29T19:42:58.484Z,47.78
2022-07-29T19:45:27.568Z,47.30
2022-07-29T19:48:00.656Z,48.28
2022-07-29T19:50:29.942Z,48.42
2022-07-29T19:52:59.193Z,47.89
2022-07-29T19:55:27.884Z,48.12
2022-07-29T19:57:56.552Z,49.11
2022-07-29T20:00:26.043Z,49.33
2022-07-29T20:02:53.914Z,48.55
2022-07-29T20:05:21.955Z,48.89
2022-07-29T20:07:56.547Z,48.77
2022-07-29T20:10:24.602Z,49.46
2022-07-29T20:12:53.914Z,49.94
2022-07-29T20:15:23.580Z,49.79
2022-07-29T20:17:56.748Z,50.04
2022-07-29T20:20:25.920Z,50.11
2022-07-29T20:22:54.510Z,50.40
2022-07-29T20:25:23.548Z,50.11
2022-07-29T20:27:55.167Z,50.03
2022-07-29T20:30:23.405Z,50.30
2022-07-29T20:32:51.431Z,50.91
2022-07-29T20:35:20.255Z,50.79
2022-07-29T20:37:52.540Z,51.34
2022-07-29T20:40:26.423Z,52.22
2022-07-29T20:42:56.003Z,52.20
2022-07-29T20:45:24.278Z,51.75
2022-07-29T20:47:52.916Z,51.33
2022-07-29T20:50:23.735Z,51.79
2022-07-29T20:52:53.217Z,51.61
2022-07-29T20:55:21.722Z,52.11
2022-07-29T20:57:49.940Z,52.53
2022-07-29T21:00:18.339Z,52.74
2022-07-29T21:02:46.553Z,52.94
2022-07-29T21:05:14.623Z,52.90
2022-07-29T21:07:42.440Z,52.96
2022-07-29T21:10:10.787Z,52.95
2022-07-29T21:12:38.814Z,53.66
2022-07-29T21:15:07.531Z,53.31
2022-07-29T21:17:36.276Z,53.78
2022-07-29T21:20:08.695Z,54.27
2022-07-29T21:22:36.741Z,54.84
2022-07-29T21:25:05.869Z,55.16
2022-07-29T21:27:52.245Z,54.65
2022-07-29T21:30:20.270Z,53.99
2022-07-29T21:32:48.200Z,54.22
2022-07-29T21:35:35.971Z,54.46
2022-07-29T21:38:04.164Z,54.33
2022-07-29T21:40:31.993Z,54.54
2022-07-29T21:42:59.923Z,54.40
2022-07-29T21:45:27.767Z,54.97
2022-07-29T21:47:55.549Z,54.82
2022-07-29T21:50:23.401Z,54.90
2022-07-29T21:52:51.265Z,55.33
2022-07-29T21:55:19.426Z,56.16
2022-07-29T21:57:49.938Z,57.60
2022-07-29T22:00:17.731Z,54.86
2022-07-29T22:02:46.016Z,55.73
2022-07-29T22:05:15.002Z,54.81
2022-07-29T22:07:55.748Z,55.15
2022-07-29T22:10:27.565Z,56.78
2022-07-29T22:12:58.456Z,56.67
2022-07-29T22:15:28.014Z,56.36
2022-07-29T22:17:55.836Z,56.39
2022-07-29T22:20:24.463Z,56.81
2022-07-29T22:22:53.244Z,56.53
2022-07-29T22:25:22.142Z,57.18
2022-07-29T22:27:50.242Z,56.60
2022-07-29T22:30:18.637Z,56.68
2022-07-29T22:32:47.973Z,57.50
2022-07-29T22:35:16.707Z,56.16
2022-07-29T22:37:44.652Z,56.24
2022-07-29T22:40:12.811Z,57.04
2022-07-29T22:42:41.073Z,56.81
2022-07-29T22:45:10.792Z,56.54
2022-07-29T22:47:48.154Z,55.95
2022-07-29T22:50:17.710Z,57.13
2022-07-29T22:52:47.093Z,56.33
2022-07-29T22:55:15.576Z,58.04
2022-07-29T22:57:43.599Z,57.80
2022-07-29T23:00:12.885Z,57.61
2022-07-29T23:02:41.649Z,57.79
2022-07-29T23:05:10.682Z,57.73
2022-07-29T23:07:38.787Z,57.67
2022-07-29T23:10:07.567Z,58.34
2022-07-29T23:12:35.471Z,59.90
2022-07-29T23:15:04.681Z,58.77
2022-07-29T23:17:36.244Z,59.23
2022-07-29T23:20:09.836Z,60.35
2022-07-29T23:22:38.131Z,60.15
2022-07-29T23:25:07.164Z,58.87
2022-07-29T23:27:35.329Z,58.24
2022-07-29T23:30:05.424Z,58.01
2022-07-29T23:32:33.263Z,57.96
2022-07-29T23:35:01.149Z,57.47
2022-07-29T23:37:29.027Z,58.01
2022-07-29T23:39:57.098Z,57.79
2022-07-29T23:42:25.053Z,58.58
2022-07-29T23:44:53.069Z,58.25
2022-07-29T23:47:20.937Z,58.35
2022-07-29T23:49:50.229Z,59.54
2022-07-29T23:52:18.476Z,59.79
2022-07-29T23:54:46.543Z,59.25
2022-07-29T23:57:14.506Z,58.96
2022-07-29T23:59:42.311Z,59.01
